首页
METAR-TAF:

METAR-TAF

机场 :

悉尼机场

悉尼, 澳大利亚

纬度: 33-57S, 经度: 151-11E, 海拔: 6米

当前天气观测

该预报发布于30分钟前的10:30 UTC
风速7节,风向
温度 15°C
湿度 63%
气压 1025 hPa
能见度10公里或以上
1500米以下无云,无积雨云

METAR: YSSY 231030Z 01007KT CAVOK 15/08 Q1025

时间: 21:00 (11:00 UTC)

预报

该预报发布于2小时和31分钟前的08:29 UTC
预报有效从23日的 09点(UTC)到 24日的 12点(UTC)
风速8节,风向北转东北
能见度10公里或以上
1500米以下无云,无积雨云
从 23日的 1100点(UTC)
风速8节,风向西北
能见度10公里或以上
1500米以下无云,无积雨云
成为
从 24日的 03点(UTC)到 24日的 05点(UTC)
风速8节,风向北转东北
能见度10公里或以上
1500米以下无云,无积雨云
从 24日的 1100点(UTC)
风速10节,风向北转西北
能见度10公里或以上
1500米以下无云,无积雨云

TAF: YSSY 230829Z 2309/2412 02008KT CAVOK FM231100 31008KT CAVOK BECMG 2403/2405 02008KT CAVOK FM241100 34010KT CAVOK

超过4000个机场的气象观测和天气预报(METAR&TAF报告)。

可查询的气象台以黄色和红色小点在地图上表示。

将鼠标移到小点上方,可查看气象台名称。

然后点击查看天气观测和预报。

如需切换地图:点击带黑十字的绿色按钮放大地图;点击带横线的绿色按钮缩小地图;或者点击绿色箭头查看邻近地区的地图。


METAR-TAF: